Lucas, KS (67648)

7:33 AM CDT on July 29, 2016 (GMT -0500)
Postrock Highway | | Change Station

Elev 1522 ft 39.01 °N, 98.52 °W | Updated 3 minutes ago

Scattered Clouds
Scattered Clouds
68.6 °F
Feels Like 68.6 °F
N
0.0
Wind Variable Wind from SW
Gusts 8.0 mph

Today
High -- | Low -- °F
--% Chance of Precip.
Yesterday
High -- | Low -- °F
Precip. -- in
Pressure 30.05 in
Visibility 8.0 miles
Clouds Scattered Clouds 500 ft
Scattered Clouds 900 ft
Scattered Clouds 11000 ft
Dew Point 68 °F
Humidity 98%
Rainfall 0.02 in
Snow Depth Not available.
6:32 AM 8:48 PM
Waning Crescent, 22% visible
SPECI KRSL 291228Z AUTO 00000KT 8SM SCT005 SCT009 SCT110 19/19 A3005 RMK AO2 T01940189
Pressure 30.05 in
Visibility 8.0 miles
Clouds Scattered Clouds 500 ft
Scattered Clouds 900 ft
Scattered Clouds 11000 ft
Dew Point 68 °F
Humidity 98%
Rainfall 0.02 in
Snow Depth Not available.
6:32 AM 8:48 PM
Waning Crescent, 22% visible
SPECI KRSL 291228Z AUTO 00000KT 8SM SCT005 SCT009 SCT110 19/19 A3005 RMK AO2 T01940189

10-Day Weather Forecast

Almanac

Astronomy

Jul. 29, 2016 Rise Set
Actual Time
Civil Twilight
Nautical Twilight
Astronomical Twilight
Moon
Length of Visible Light
Length of Day
Tomorrow will be .
, % of the Moon is Illuminated

Today's Extremes

State Highs State Lows

Community

WunderPhotos

Upload Photos

1,928,335 photos uploaded!

WunderBlog® & News

Nearby

Air Quality

  Air Quality AQ Index Pollutant
Not available.

Snow Depth

Station Depth Elevation

Earthquake Activity

City Distance Mag. Time & Date
Minimum magnitude displayed is 2.5.

Coastal Water Temperatures

Place Temperature

Stations

Nearby Weather Stations

Station Location Temp. Windchill Dew Point Humidity Wind Precip. Elev Updated Type
                   

Watches & Warnings

There are currently no watches in effect.